createdAt,value
2022-08-22T00:00:30.118Z,20.81
2022-08-22T00:02:45.979Z,22.38
2022-08-22T00:03:04.029Z,21.96
2022-08-22T00:03:33.621Z,20.94
2022-08-22T00:06:36.792Z,21.19
2022-08-22T00:09:59.502Z,21.09
2022-08-22T00:13:08.436Z,20.80
2022-08-22T00:16:35.152Z,20.65
2022-08-22T00:19:47.907Z,20.57
2022-08-22T00:23:14.240Z,20.76
2022-08-22T00:26:29.530Z,20.79
2022-08-22T00:29:49.801Z,20.53
2022-08-22T00:33:02.276Z,20.46
2022-08-22T00:36:06.110Z,20.63
2022-08-22T00:39:13.263Z,20.59
2022-08-22T00:42:31.885Z,20.30
2022-08-22T00:45:41.742Z,20.46
2022-08-22T00:48:41.257Z,20.71
2022-08-22T00:52:07.797Z,21.10
2022-08-22T00:55:21.345Z,21.33
2022-08-22T00:58:33.403Z,21.17
2022-08-22T01:01:33.658Z,20.74
2022-08-22T01:04:43.137Z,20.10
2022-08-22T01:07:58.653Z,19.62
2022-08-22T01:11:30.197Z,19.74
2022-08-22T01:14:35.159Z,19.95
2022-08-22T01:18:04.514Z,20.20
2022-08-22T01:21:26.242Z,20.29
2022-08-22T01:25:04.509Z,20.31
2022-08-22T01:28:13.702Z,20.16
2022-08-22T01:31:38.349Z,20.14
2022-08-22T01:34:57.724Z,19.64
2022-08-22T01:37:58.901Z,19.64
2022-08-22T01:41:30.460Z,19.78
2022-08-22T01:44:49.223Z,20.27
2022-08-22T01:48:06.276Z,20.66
2022-08-22T01:51:12.115Z,20.36
2022-08-22T01:54:27.882Z,20.10
2022-08-22T01:57:26.271Z,19.73
2022-08-22T02:00:34.789Z,19.67
2022-08-22T02:03:54.401Z,20.01
2022-08-22T02:07:00.555Z,19.97
2022-08-22T02:10:27.024Z,20.09
2022-08-22T02:13:46.470Z,19.89
2022-08-22T02:16:45.994Z,19.73
2022-08-22T02:20:02.192Z,19.63
2022-08-22T02:23:25.737Z,19.81
2022-08-22T02:26:43.951Z,19.75
2022-08-22T02:29:48.927Z,19.26
2022-08-22T02:33:11.203Z,19.30
2022-08-22T02:36:19.465Z,19.38
2022-08-22T02:39:41.094Z,19.36
2022-08-22T02:42:52.381Z,19.38
2022-08-22T02:45:54.473Z,19.36
2022-08-22T02:49:31.273Z,19.47
2022-08-22T02:52:52.518Z,19.60
2022-08-22T02:55:54.535Z,19.61
2022-08-22T02:59:02.906Z,19.74
2022-08-22T03:02:26.188Z,19.74
2022-08-22T03:05:26.297Z,19.74
2022-08-22T03:08:54.074Z,19.77
2022-08-22T03:12:06.624Z,19.58
2022-08-22T03:15:20.934Z,19.40
2022-08-22T03:18:26.977Z,19.16
2022-08-22T03:21:30.359Z,18.83
2022-08-22T03:24:38.797Z,18.69
2022-08-22T03:28:00.201Z,18.67
2022-08-22T03:31:09.821Z,18.76
2022-08-22T03:34:23.119Z,18.83
2022-08-22T03:37:39.311Z,18.85
2022-08-22T03:41:14.367Z,18.94
2022-08-22T03:44:36.218Z,19.07
2022-08-22T03:47:48.595Z,19.08
2022-08-22T03:50:55.677Z,18.77
2022-08-22T03:54:30.608Z,18.66
2022-08-22T03:57:47.613Z,18.60
2022-08-22T04:01:41.981Z,18.61
2022-08-22T04:05:07.247Z,18.63
2022-08-22T04:08:13.820Z,18.48
2022-08-22T04:11:39.300Z,18.66
2022-08-22T04:15:06.232Z,18.94
2022-08-22T04:18:25.142Z,19.52
2022-08-22T04:21:49.292Z,19.57
2022-08-22T04:24:52.020Z,19.20
2022-08-22T04:27:51.372Z,18.77
2022-08-22T04:31:01.380Z,18.52
2022-08-22T04:34:09.904Z,18.47
2022-08-22T04:37:23.316Z,18.45
2022-08-22T04:40:27.620Z,18.41
2022-08-22T04:43:26.134Z,18.33
2022-08-22T04:46:36.617Z,18.17
2022-08-22T04:49:37.462Z,17.93
2022-08-22T04:52:52.710Z,17.91
2022-08-22T04:55:54.429Z,18.13
2022-08-22T04:58:51.667Z,18.09
2022-08-22T05:01:59.262Z,18.05
2022-08-22T05:05:21.975Z,18.04
2022-08-22T05:08:21.814Z,18.02
2022-08-22T05:11:21.468Z,18.04
2022-08-22T05:14:30.950Z,18.07
2022-08-22T05:17:28.971Z,18.26
2022-08-22T05:20:26.543Z,18.29
2022-08-22T05:23:25.104Z,18.20
2022-08-22T05:26:22.545Z,18.37
2022-08-22T05:29:23.474Z,18.56
2022-08-22T05:32:32.214Z,18.61
2022-08-22T05:35:59.161Z,18.86
2022-08-22T05:39:02.350Z,18.95
2022-08-22T05:42:02.598Z,19.14
2022-08-22T05:45:01.879Z,19.38
2022-08-22T05:48:11.972Z,19.53
2022-08-22T05:51:25.397Z,19.72
2022-08-22T05:54:34.478Z,19.80
2022-08-22T05:57:42.442Z,19.91
2022-08-22T06:00:41.758Z,19.96
2022-08-22T06:03:54.076Z,19.93
2022-08-22T06:07:28.130Z,20.02
2022-08-22T06:10:29.701Z,20.06
2022-08-22T06:13:26.758Z,20.16
2022-08-22T06:17:05.388Z,20.28
2022-08-22T06:20:03.220Z,20.58
2022-08-22T06:23:01.362Z,20.64
2022-08-22T06:25:59.808Z,20.80
2022-08-22T06:28:58.109Z,20.92
2022-08-22T06:31:55.643Z,21.00
2022-08-22T06:34:52.803Z,21.10
2022-08-22T06:37:49.979Z,21.14
2022-08-22T06:40:47.198Z,21.14
2022-08-22T06:43:44.938Z,21.11
2022-08-22T06:46:41.933Z,21.07
2022-08-22T06:49:39.517Z,20.95
2022-08-22T06:52:52.617Z,21.00
2022-08-22T06:55:51.798Z,21.46
2022-08-22T06:58:49.038Z,21.59
2022-08-22T07:01:45.830Z,21.60
2022-08-22T07:04:43.015Z,21.66
2022-08-22T07:07:39.847Z,21.70
2022-08-22T07:10:37.665Z,21.76
2022-08-22T07:13:36.324Z,21.70
2022-08-22T07:16:52.165Z,21.56
2022-08-22T07:20:15.431Z,21.85
2022-08-22T07:23:14.623Z,21.71
2022-08-22T07:26:30.789Z,21.76
2022-08-22T07:29:38.397Z,21.94
2022-08-22T07:32:37.002Z,22.24
2022-08-22T07:35:42.099Z,22.37
2022-08-22T07:39:13.329Z,22.23
2022-08-22T07:42:21.724Z,22.13
2022-08-22T07:45:38.913Z,22.38
2022-08-22T07:48:59.522Z,22.44
2022-08-22T07:52:05.310Z,22.38
2022-08-22T07:55:20.587Z,22.54
2022-08-22T07:58:17.763Z,22.51
2022-08-22T08:01:18.789Z,22.75
2022-08-22T08:04:19.815Z,23.16
2022-08-22T08:07:17.302Z,23.14
2022-08-22T08:10:21.767Z,23.52
2022-08-22T08:13:36.452Z,23.82
2022-08-22T08:16:42.390Z,24.11
2022-08-22T08:19:40.755Z,23.87
2022-08-22T08:22:37.903Z,23.87
2022-08-22T08:25:54.838Z,23.19
2022-08-22T08:28:53.317Z,23.19
2022-08-22T08:31:50.635Z,23.24
2022-08-22T08:34:48.095Z,23.43
2022-08-22T08:38:00.923Z,23.68
2022-08-22T08:41:31.217Z,23.90
2022-08-22T08:44:45.902Z,23.78
2022-08-22T08:47:59.680Z,23.90
2022-08-22T08:51:14.708Z,23.62
2022-08-22T08:54:26.756Z,23.29
2022-08-22T08:57:54.527Z,23.65
2022-08-22T09:01:27.782Z,23.51
2022-08-22T09:04:25.738Z,23.35
2022-08-22T09:07:32.405Z,23.43
2022-08-22T09:10:38.026Z,23.44
2022-08-22T09:13:40.858Z,23.13
2022-08-22T09:16:46.307Z,23.30
2022-08-22T09:19:53.533Z,23.32
2022-08-22T09:23:16.694Z,23.54
2022-08-22T09:26:34.344Z,23.90
2022-08-22T09:29:34.955Z,23.96
2022-08-22T09:32:58.523Z,24.02
2022-08-22T09:36:32.785Z,23.97
2022-08-22T09:39:38.514Z,23.50
2022-08-22T09:42:39.177Z,23.37
2022-08-22T09:45:51.895Z,23.45
2022-08-22T09:49:00.586Z,23.30
2022-08-22T09:52:31.976Z,23.87
2022-08-22T09:55:41.870Z,24.09
2022-08-22T09:59:17.428Z,24.31
2022-08-22T10:02:52.282Z,24.28
2022-08-22T10:06:01.269Z,24.06
2022-08-22T10:09:00.361Z,24.16
2022-08-22T10:12:12.887Z,24.34
2022-08-22T10:15:17.364Z,24.60
2022-08-22T10:18:44.078Z,24.76
2022-08-22T10:22:14.453Z,24.79
2022-08-22T10:25:30.515Z,24.89
2022-08-22T10:28:28.590Z,24.97
2022-08-22T10:31:27.852Z,24.84
2022-08-22T10:34:28.532Z,24.96
2022-08-22T10:37:46.155Z,25.10
2022-08-22T10:40:53.992Z,25.26
2022-08-22T10:44:17.149Z,25.16
2022-08-22T10:47:18.110Z,25.07
2022-08-22T10:50:20.080Z,25.08
2022-08-22T10:53:31.261Z,24.99
2022-08-22T10:56:43.929Z,24.97
2022-08-22T10:59:51.023Z,25.33
2022-08-22T11:03:15.173Z,25.59
2022-08-22T11:06:26.097Z,25.66
2022-08-22T11:09:40.529Z,25.76
2022-08-22T11:13:19.750Z,25.62
2022-08-22T11:16:24.476Z,25.46
2022-08-22T11:19:44.720Z,25.59
2022-08-22T11:22:48.765Z,25.63
2022-08-22T11:26:05.008Z,25.63
2022-08-22T11:29:13.323Z,25.82
2022-08-22T11:32:24.356Z,26.00
2022-08-22T11:35:55.972Z,26.16
2022-08-22T11:39:01.653Z,26.07
2022-08-22T11:42:29.655Z,26.25
2022-08-22T11:45:29.985Z,26.37
2022-08-22T11:48:48.591Z,25.92
2022-08-22T11:52:01.147Z,25.67
2022-08-22T11:54:59.000Z,25.49
2022-08-22T11:58:07.148Z,25.68
2022-08-22T12:01:42.850Z,25.91
2022-08-22T12:04:58.601Z,26.10
2022-08-22T12:08:03.056Z,26.29
2022-08-22T12:11:15.161Z,26.25
2022-08-22T12:14:41.254Z,26.30
2022-08-22T12:18:01.906Z,26.55
2022-08-22T12:21:11.256Z,26.89
2022-08-22T12:24:33.286Z,26.80
2022-08-22T12:27:38.485Z,26.74
2022-08-22T12:30:38.785Z,26.81
2022-08-22T12:34:02.115Z,27.14
2022-08-22T12:37:25.514Z,27.22
2022-08-22T12:40:43.596Z,26.85
2022-08-22T12:43:47.013Z,26.95
2022-08-22T12:47:09.267Z,26.73
2022-08-22T12:50:24.949Z,26.69
2022-08-22T12:53:47.364Z,26.43
2022-08-22T12:57:10.510Z,26.31
2022-08-22T13:00:29.406Z,26.36
2022-08-22T13:03:32.574Z,26.28
2022-08-22T13:06:36.459Z,26.06
2022-08-22T13:09:40.086Z,26.16
2022-08-22T13:12:51.801Z,26.27
2022-08-22T13:15:55.620Z,26.16
2022-08-22T13:19:07.647Z,26.29
2022-08-22T13:22:08.686Z,26.31
2022-08-22T13:25:26.025Z,26.54
2022-08-22T13:28:24.156Z,26.86
2022-08-22T13:31:32.123Z,26.70
2022-08-22T13:34:29.067Z,26.54
2022-08-22T13:37:37.595Z,26.37
2022-08-22T13:40:36.298Z,26.16
2022-08-22T13:43:38.128Z,26.29
2022-08-22T13:46:39.120Z,26.41
2022-08-22T13:49:55.252Z,26.45
2022-08-22T13:52:55.445Z,26.38
2022-08-22T13:55:59.808Z,26.40
2022-08-22T13:58:58.962Z,26.53
2022-08-22T14:02:22.427Z,26.54
2022-08-22T14:05:24.005Z,26.38
2022-08-22T14:08:45.806Z,26.72
2022-08-22T14:11:55.371Z,26.83
2022-08-22T14:14:57.073Z,26.58
2022-08-22T14:18:00.257Z,26.53
2022-08-22T14:21:20.409Z,26.59
2022-08-22T14:24:27.233Z,26.47
2022-08-22T14:27:58.081Z,26.49
2022-08-22T14:31:13.293Z,26.55
2022-08-22T14:34:12.946Z,26.50
2022-08-22T14:37:15.763Z,26.55
2022-08-22T14:40:17.939Z,26.72
2022-08-22T14:43:31.907Z,26.52
2022-08-22T14:46:42.158Z,26.33
2022-08-22T14:49:52.952Z,26.47
2022-08-22T14:52:50.579Z,26.73
2022-08-22T14:55:58.083Z,26.79
2022-08-22T14:58:55.106Z,26.75
2022-08-22T15:02:08.355Z,26.78
2022-08-22T15:05:16.395Z,26.77
2022-08-22T15:08:21.121Z,26.63
2022-08-22T15:11:25.198Z,26.59
2022-08-22T15:14:25.830Z,26.94
2022-08-22T15:17:35.186Z,26.98
2022-08-22T15:20:38.364Z,26.82
2022-08-22T15:23:45.420Z,26.91
2022-08-22T15:26:52.237Z,27.01
2022-08-22T15:30:00.819Z,27.11
2022-08-22T15:33:33.624Z,27.14
2022-08-22T15:36:31.535Z,27.27
2022-08-22T15:39:31.141Z,27.09
2022-08-22T15:42:31.068Z,27.17
2022-08-22T15:45:36.269Z,27.21
2022-08-22T15:48:36.600Z,27.33
2022-08-22T15:51:37.657Z,27.32
2022-08-22T15:54:57.043Z,27.10
2022-08-22T15:58:04.618Z,27.28
2022-08-22T16:01:22.325Z,27.40
2022-08-22T16:04:38.208Z,27.40
2022-08-22T16:07:38.926Z,27.23
2022-08-22T16:10:47.632Z,27.12
2022-08-22T16:13:45.523Z,27.05
2022-08-22T16:16:45.188Z,26.79
2022-08-22T16:19:42.235Z,26.88
2022-08-22T16:22:57.291Z,26.96
2022-08-22T16:25:54.337Z,27.22
2022-08-22T16:28:59.580Z,27.09
2022-08-22T16:32:01.914Z,27.24
2022-08-22T16:34:59.221Z,27.43
2022-08-22T16:37:56.739Z,27.36
2022-08-22T16:40:54.279Z,27.45
2022-08-22T16:44:28.469Z,27.46
2022-08-22T16:47:32.671Z,27.19
2022-08-22T16:50:35.792Z,27.24
2022-08-22T16:53:46.017Z,27.11
2022-08-22T16:57:07.747Z,27.27
2022-08-22T17:00:26.480Z,27.24
2022-08-22T17:03:36.985Z,26.90
2022-08-22T17:06:56.616Z,26.88
2022-08-22T17:09:53.016Z,26.73
2022-08-22T17:13:44.977Z,26.86
2022-08-22T17:16:54.063Z,26.86
2022-08-22T17:20:12.733Z,26.71
2022-08-22T17:23:28.755Z,26.44
2022-08-22T17:26:55.203Z,26.41
2022-08-22T17:30:07.184Z,26.19
2022-08-22T17:33:31.055Z,26.01
2022-08-22T17:36:31.593Z,26.06
2022-08-22T17:39:42.270Z,26.13
2022-08-22T17:43:04.210Z,26.20
2022-08-22T17:46:24.585Z,25.95
2022-08-22T17:49:45.236Z,25.83
2022-08-22T17:52:49.149Z,25.88
2022-08-22T17:55:57.567Z,25.92
2022-08-22T17:59:00.659Z,25.88
2022-08-22T18:02:18.822Z,25.98
2022-08-22T18:05:22.640Z,25.97
2022-08-22T18:11:50.040Z,25.74
2022-08-22T18:14:50.740Z,25.71
2022-08-22T18:17:56.916Z,25.67
2022-08-22T18:21:00.790Z,25.46
2022-08-22T18:24:10.342Z,25.37
2022-08-22T18:27:35.421Z,25.52
2022-08-22T18:30:52.889Z,25.73
2022-08-22T18:33:56.044Z,25.79
2022-08-22T18:37:03.767Z,25.66
2022-08-22T18:40:22.273Z,25.40
2022-08-22T18:43:26.099Z,25.30
2022-08-22T18:46:38.281Z,25.28
2022-08-22T18:49:35.479Z,25.21
2022-08-22T18:52:34.421Z,25.19
2022-08-22T18:55:51.965Z,25.21
2022-08-22T18:59:10.361Z,25.13
2022-08-22T19:02:10.414Z,25.04
2022-08-22T19:05:24.458Z,24.91
2022-08-22T19:08:55.342Z,24.60
2022-08-22T19:12:17.229Z,24.81
2022-08-22T19:15:36.027Z,24.92
2022-08-22T19:18:44.118Z,24.38
2022-08-22T19:22:19.305Z,24.87
2022-08-22T19:25:20.941Z,25.06
2022-08-22T19:28:22.563Z,24.86
2022-08-22T19:31:41.781Z,24.75
2022-08-22T19:34:44.106Z,24.69
2022-08-22T19:38:02.699Z,24.90
2022-08-22T19:41:01.896Z,25.02
2022-08-22T19:43:59.313Z,25.12
2022-08-22T19:47:03.843Z,25.02
2022-08-22T19:50:10.542Z,24.87
2022-08-22T19:53:07.363Z,24.87
2022-08-22T19:56:07.170Z,24.81
2022-08-22T19:59:25.696Z,24.77
2022-08-22T20:02:40.395Z,24.67
2022-08-22T20:05:56.881Z,24.41
2022-08-22T20:09:04.044Z,24.55
2022-08-22T20:12:22.982Z,24.42
2022-08-22T20:15:22.447Z,24.55
2022-08-22T20:19:12.368Z,24.47
2022-08-22T20:22:31.337Z,24.53
2022-08-22T20:25:41.803Z,24.64
2022-08-22T20:28:48.880Z,24.58
2022-08-22T20:31:47.227Z,24.46
2022-08-22T20:34:44.477Z,24.24
2022-08-22T20:38:05.757Z,24.30
2022-08-22T20:41:21.626Z,24.13
2022-08-22T20:44:30.858Z,23.99
2022-08-22T20:47:36.167Z,23.97
2022-08-22T20:50:38.452Z,23.91
2022-08-22T20:53:35.751Z,23.81
2022-08-22T20:56:38.698Z,23.85
2022-08-22T20:59:58.819Z,23.55
2022-08-22T21:03:07.895Z,23.40
2022-08-22T21:06:20.656Z,23.31
2022-08-22T21:09:40.416Z,23.26
2022-08-22T21:12:37.522Z,23.31
2022-08-22T21:15:37.205Z,23.38
2022-08-22T21:18:36.549Z,23.19
2022-08-22T21:21:34.475Z,23.14
2022-08-22T21:24:31.491Z,23.36
2022-08-22T21:27:32.622Z,23.21
2022-08-22T21:30:30.210Z,23.04
2022-08-22T21:33:27.727Z,22.98
2022-08-22T21:36:28.387Z,22.86
2022-08-22T21:39:31.109Z,22.77
2022-08-22T21:42:32.751Z,22.78
2022-08-22T21:45:38.887Z,22.71
2022-08-22T21:48:46.294Z,22.60
2022-08-22T21:51:44.779Z,22.56
2022-08-22T21:54:41.435Z,22.37
2022-08-22T21:57:38.642Z,22.38
2022-08-22T22:00:45.880Z,22.46
2022-08-22T22:03:46.443Z,22.70
2022-08-22T22:06:44.463Z,22.91
2022-08-22T22:09:41.765Z,22.82
2022-08-22T22:12:52.108Z,22.70
2022-08-22T22:15:50.809Z,22.67
2022-08-22T22:18:48.068Z,22.57
2022-08-22T22:21:45.818Z,22.58
2022-08-22T22:24:42.725Z,22.52
2022-08-22T22:27:39.770Z,22.49
2022-08-22T22:30:36.521Z,22.54
2022-08-22T22:33:38.820Z,22.60
2022-08-22T22:36:35.696Z,22.48
2022-08-22T22:39:32.492Z,22.25
2022-08-22T22:42:29.795Z,22.22
2022-08-22T22:45:27.154Z,22.32
2022-08-22T22:48:24.966Z,22.34
2022-08-22T22:51:22.726Z,22.48
2022-08-22T22:54:19.744Z,22.58
2022-08-22T22:57:25.673Z,22.81
2022-08-22T23:00:22.371Z,22.82
2022-08-22T23:03:26.973Z,22.82
2022-08-22T23:06:25.630Z,22.86
2022-08-22T23:09:38.614Z,22.81
2022-08-22T23:12:41.254Z,22.91
2022-08-22T23:15:38.653Z,22.85
2022-08-22T23:18:35.705Z,22.88
2022-08-22T23:21:33.046Z,22.69
2022-08-22T23:24:33.236Z,22.56
2022-08-22T23:27:31.533Z,22.53
2022-08-22T23:30:28.674Z,22.39
2022-08-22T23:33:25.380Z,22.42
2022-08-22T23:36:23.360Z,22.45
2022-08-22T23:39:21.372Z,22.56
2022-08-22T23:42:18.831Z,22.49
2022-08-22T23:45:15.950Z,22.46
2022-08-22T23:48:12.762Z,22.42
2022-08-22T23:51:10.810Z,22.33
2022-08-22T23:54:07.697Z,22.23
2022-08-22T23:57:11.967Z,22.08
